sensor_id;sensor_type;location;lat;lon;timestamp;temperature;humidity
61016;DHT22;46902;52.920;6.536;2023-06-22T00:02:25;19.40;99.90
61016;DHT22;46902;52.920;6.536;2023-06-22T00:04:51;19.40;99.90
61016;DHT22;46902;52.920;6.536;2023-06-22T00:07:16;19.40;99.90
61016;DHT22;46902;52.920;6.536;2023-06-22T00:09:42;19.30;99.90
61016;DHT22;46902;52.920;6.536;2023-06-22T00:12:08;19.30;99.90
61016;DHT22;46902;52.920;6.536;2023-06-22T00:14:33;19.30;99.90
61016;DHT22;46902;52.920;6.536;2023-06-22T00:16:59;19.20;99.90
61016;DHT22;46902;52.920;6.536;2023-06-22T00:19:25;19.20;99.90
61016;DHT22;46902;52.920;6.536;2023-06-22T00:21:50;19.20;99.90
61016;DHT22;46902;52.920;6.536;2023-06-22T00:24:20;19.20;99.90
61016;DHT22;46902;52.920;6.536;2023-06-22T00:26:46;19.10;99.90
61016;DHT22;46902;52.920;6.536;2023-06-22T00:29:12;19.10;99.90
61016;DHT22;46902;52.920;6.536;2023-06-22T00:31:38;19.00;99.90
61016;DHT22;46902;52.920;6.536;2023-06-22T00:34:04;19.10;99.90
61016;DHT22;46902;52.920;6.536;2023-06-22T00:36:34;19.10;99.90
61016;DHT22;46902;52.920;6.536;2023-06-22T00:39:00;19.00;99.90
61016;DHT22;46902;52.920;6.536;2023-06-22T00:41:25;19.00;99.90
61016;DHT22;46902;52.920;6.536;2023-06-22T00:43:54;19.00;99.90
61016;DHT22;46902;52.920;6.536;2023-06-22T00:46:20;18.90;99.90
61016;DHT22;46902;52.920;6.536;2023-06-22T00:48:46;19.00;99.90
61016;DHT22;46902;52.920;6.536;2023-06-22T00:51:11;18.90;99.90
61016;DHT22;46902;52.920;6.536;2023-06-22T00:53:37;18.90;99.90
61016;DHT22;46902;52.920;6.536;2023-06-22T00:56:04;18.80;99.90
61016;DHT22;46902;52.920;6.536;2023-06-22T00:58:31;18.80;99.90
61016;DHT22;46902;52.920;6.536;2023-06-22T01:00:57;18.80;99.90
61016;DHT22;46902;52.920;6.536;2023-06-22T01:03:24;18.80;99.90
61016;DHT22;46902;52.920;6.536;2023-06-22T01:05:49;18.80;99.90
61016;DHT22;46902;52.920;6.536;2023-06-22T01:08:33;18.70;99.90
61016;DHT22;46902;52.920;6.536;2023-06-22T01:11:28;18.80;99.90
61016;DHT22;46902;52.920;6.536;2023-06-22T01:14:15;18.70;99.90
61016;DHT22;46902;52.920;6.536;2023-06-22T01:16:44;18.60;99.90
61016;DHT22;46902;52.920;6.536;2023-06-22T01:19:43;18.50;99.90
61016;DHT22;46902;52.920;6.536;2023-06-22T01:22:08;18.50;99.90
61016;DHT22;46902;52.920;6.536;2023-06-22T01:27:40;18.40;99.90
61016;DHT22;46902;52.920;6.536;2023-06-22T01:30:11;18.30;99.90
61016;DHT22;46902;52.920;6.536;2023-06-22T01:32:40;18.20;99.90
61016;DHT22;46902;52.920;6.536;2023-06-22T01:35:08;18.20;99.90
61016;DHT22;46902;52.920;6.536;2023-06-22T01:37:36;18.20;99.90
61016;DHT22;46902;52.920;6.536;2023-06-22T01:40:02;18.20;99.90
61016;DHT22;46902;52.920;6.536;2023-06-22T01:42:31;18.20;99.90
61016;DHT22;46902;52.920;6.536;2023-06-22T01:44:58;18.10;99.90
61016;DHT22;46902;52.920;6.536;2023-06-22T01:47:24;18.00;99.90
61016;DHT22;46902;52.920;6.536;2023-06-22T01:49:50;18.00;99.90
61016;DHT22;46902;52.920;6.536;2023-06-22T01:52:19;18.00;99.90
61016;DHT22;46902;52.920;6.536;2023-06-22T01:54:46;18.00;99.90
61016;DHT22;46902;52.920;6.536;2023-06-22T01:57:12;17.90;99.90
61016;DHT22;46902;52.920;6.536;2023-06-22T02:00:06;17.90;99.90
61016;DHT22;46902;52.920;6.536;2023-06-22T02:02:41;17.90;99.90
61016;DHT22;46902;52.920;6.536;2023-06-22T02:05:09;17.80;99.90
61016;DHT22;46902;52.920;6.536;2023-06-22T02:07:46;17.70;99.90
61016;DHT22;46902;52.920;6.536;2023-06-22T02:10:14;17.70;99.90
61016;DHT22;46902;52.920;6.536;2023-06-22T02:12:42;17.60;99.90
61016;DHT22;46902;52.920;6.536;2023-06-22T02:15:09;17.60;99.90
61016;DHT22;46902;52.920;6.536;2023-06-22T02:17:35;17.50;99.90
61016;DHT22;46902;52.920;6.536;2023-06-22T02:20:03;17.50;99.90
61016;DHT22;46902;52.920;6.536;2023-06-22T02:22:34;17.50;99.90
61016;DHT22;46902;52.920;6.536;2023-06-22T02:24:59;17.40;99.90
61016;DHT22;46902;52.920;6.536;2023-06-22T02:27:25;17.40;99.90
61016;DHT22;46902;52.920;6.536;2023-06-22T02:29:51;17.40;99.90
61016;DHT22;46902;52.920;6.536;2023-06-22T02:32:16;17.40;99.90
61016;DHT22;46902;52.920;6.536;2023-06-22T02:34:43;17.30;99.90
61016;DHT22;46902;52.920;6.536;2023-06-22T02:37:13;17.30;99.90
61016;DHT22;46902;52.920;6.536;2023-06-22T02:39:40;17.30;99.90
61016;DHT22;46902;52.920;6.536;2023-06-22T02:42:06;17.30;99.90
61016;DHT22;46902;52.920;6.536;2023-06-22T02:44:31;17.30;99.90
61016;DHT22;46902;52.920;6.536;2023-06-22T02:46:58;17.30;99.90
61016;DHT22;46902;52.920;6.536;2023-06-22T02:49:23;17.30;99.90
61016;DHT22;46902;52.920;6.536;2023-06-22T02:51:49;17.20;99.90
61016;DHT22;46902;52.920;6.536;2023-06-22T02:54:15;17.20;99.90
61016;DHT22;46902;52.920;6.536;2023-06-22T02:56:42;17.30;99.90
61016;DHT22;46902;52.920;6.536;2023-06-22T02:59:09;17.20;99.90
61016;DHT22;46902;52.920;6.536;2023-06-22T03:01:36;17.20;99.90
61016;DHT22;46902;52.920;6.536;2023-06-22T03:04:08;17.20;99.90
61016;DHT22;46902;52.920;6.536;2023-06-22T03:06:34;17.10;99.90
61016;DHT22;46902;52.920;6.536;2023-06-22T03:09:02;17.10;99.90
61016;DHT22;46902;52.920;6.536;2023-06-22T03:11:29;17.10;99.90
61016;DHT22;46902;52.920;6.536;2023-06-22T03:13:55;17.10;99.90
61016;DHT22;46902;52.920;6.536;2023-06-22T03:16:21;17.10;99.90
61016;DHT22;46902;52.920;6.536;2023-06-22T03:18:47;17.10;99.90
61016;DHT22;46902;52.920;6.536;2023-06-22T03:21:12;17.10;99.90
61016;DHT22;46902;52.920;6.536;2023-06-22T03:23:38;17.00;99.90
61016;DHT22;46902;52.920;6.536;2023-06-22T03:26:03;17.00;99.90
61016;DHT22;46902;52.920;6.536;2023-06-22T03:28:29;17.00;99.90
61016;DHT22;46902;52.920;6.536;2023-06-22T03:30:57;17.00;99.90
61016;DHT22;46902;52.920;6.536;2023-06-22T03:33:23;17.00;99.90
61016;DHT22;46902;52.920;6.536;2023-06-22T03:35:49;17.00;99.90
61016;DHT22;46902;52.920;6.536;2023-06-22T03:38:16;17.00;99.90
61016;DHT22;46902;52.920;6.536;2023-06-22T03:40:41;17.10;99.90
61016;DHT22;46902;52.920;6.536;2023-06-22T03:43:07;17.00;99.90
61016;DHT22;46902;52.920;6.536;2023-06-22T03:45:33;17.10;99.90
61016;DHT22;46902;52.920;6.536;2023-06-22T03:47:58;17.10;99.90
61016;DHT22;46902;52.920;6.536;2023-06-22T03:50:24;17.10;99.90
61016;DHT22;46902;52.920;6.536;2023-06-22T03:52:49;17.10;99.90
61016;DHT22;46902;52.920;6.536;2023-06-22T03:55:19;17.20;99.90
61016;DHT22;46902;52.920;6.536;2023-06-22T03:57:44;17.20;99.90
61016;DHT22;46902;52.920;6.536;2023-06-22T04:00:10;17.20;99.90
61016;DHT22;46902;52.920;6.536;2023-06-22T04:02:36;17.30;99.90
61016;DHT22;46902;52.920;6.536;2023-06-22T04:05:02;17.30;99.90
61016;DHT22;46902;52.920;6.536;2023-06-22T04:07:28;17.30;99.90
61016;DHT22;46902;52.920;6.536;2023-06-22T04:09:53;17.30;99.90
61016;DHT22;46902;52.920;6.536;2023-06-22T04:12:19;17.30;99.90
61016;DHT22;46902;52.920;6.536;2023-06-22T04:14:44;17.30;99.90
61016;DHT22;46902;52.920;6.536;2023-06-22T04:17:10;17.30;99.90
61016;DHT22;46902;52.920;6.536;2023-06-22T04:19:38;17.40;99.90
61016;DHT22;46902;52.920;6.536;2023-06-22T04:22:03;17.40;99.90
61016;DHT22;46902;52.920;6.536;2023-06-22T04:24:29;17.40;99.90
61016;DHT22;46902;52.920;6.536;2023-06-22T04:26:55;17.40;99.90
61016;DHT22;46902;52.920;6.536;2023-06-22T04:29:21;17.40;99.90
61016;DHT22;46902;52.920;6.536;2023-06-22T04:31:54;17.40;99.90
61016;DHT22;46902;52.920;6.536;2023-06-22T04:34:21;17.40;99.90
61016;DHT22;46902;52.920;6.536;2023-06-22T04:36:47;17.40;99.90
61016;DHT22;46902;52.920;6.536;2023-06-22T04:39:12;17.40;99.90
61016;DHT22;46902;52.920;6.536;2023-06-22T04:41:39;17.40;99.90
61016;DHT22;46902;52.920;6.536;2023-06-22T04:44:15;17.40;99.90
61016;DHT22;46902;52.920;6.536;2023-06-22T04:46:54;17.40;99.90
61016;DHT22;46902;52.920;6.536;2023-06-22T04:49:26;17.40;99.90
61016;DHT22;46902;52.920;6.536;2023-06-22T04:52:02;17.40;99.90
61016;DHT22;46902;52.920;6.536;2023-06-22T04:54:28;17.40;99.90
61016;DHT22;46902;52.920;6.536;2023-06-22T04:56:54;17.30;99.90
61016;DHT22;46902;52.920;6.536;2023-06-22T04:59:27;17.40;99.90
61016;DHT22;46902;52.920;6.536;2023-06-22T05:01:56;17.50;99.90
61016;DHT22;46902;52.920;6.536;2023-06-22T05:04:23;17.50;99.90
61016;DHT22;46902;52.920;6.536;2023-06-22T05:06:50;17.60;99.90
61016;DHT22;46902;52.920;6.536;2023-06-22T05:09:15;17.60;99.90
61016;DHT22;46902;52.920;6.536;2023-06-22T05:11:43;17.60;99.90
61016;DHT22;46902;52.920;6.536;2023-06-22T05:14:09;17.70;99.90
61016;DHT22;46902;52.920;6.536;2023-06-22T05:16:34;17.80;99.90
61016;DHT22;46902;52.920;6.536;2023-06-22T05:19:00;17.90;99.90
61016;DHT22;46902;52.920;6.536;2023-06-22T05:21:28;17.90;99.90
61016;DHT22;46902;52.920;6.536;2023-06-22T05:23:54;18.00;99.90
61016;DHT22;46902;52.920;6.536;2023-06-22T05:26:20;18.00;99.90
61016;DHT22;46902;52.920;6.536;2023-06-22T05:28:47;18.10;99.90
61016;DHT22;46902;52.920;6.536;2023-06-22T05:31:16;18.20;99.90
61016;DHT22;46902;52.920;6.536;2023-06-22T05:33:43;18.30;99.90
61016;DHT22;46902;52.920;6.536;2023-06-22T05:36:09;18.30;99.90
61016;DHT22;46902;52.920;6.536;2023-06-22T05:38:36;18.30;99.90
61016;DHT22;46902;52.920;6.536;2023-06-22T05:41:02;18.40;99.90
61016;DHT22;46902;52.920;6.536;2023-06-22T05:43:28;18.50;99.90
61016;DHT22;46902;52.920;6.536;2023-06-22T05:45:53;18.60;99.90
61016;DHT22;46902;52.920;6.536;2023-06-22T05:48:19;18.60;99.90
61016;DHT22;46902;52.920;6.536;2023-06-22T05:50:45;18.70;99.90
61016;DHT22;46902;52.920;6.536;2023-06-22T05:53:10;18.80;99.90
61016;DHT22;46902;52.920;6.536;2023-06-22T05:55:36;18.90;99.90
61016;DHT22;46902;52.920;6.536;2023-06-22T05:58:01;18.90;99.90
61016;DHT22;46902;52.920;6.536;2023-06-22T06:00:28;19.00;99.90
61016;DHT22;46902;52.920;6.536;2023-06-22T06:02:54;19.10;99.90
61016;DHT22;46902;52.920;6.536;2023-06-22T06:05:20;19.20;99.90
61016;DHT22;46902;52.920;6.536;2023-06-22T06:07:46;19.20;99.90
61016;DHT22;46902;52.920;6.536;2023-06-22T06:10:12;19.30;99.90
61016;DHT22;46902;52.920;6.536;2023-06-22T06:12:38;19.40;99.90
61016;DHT22;46902;52.920;6.536;2023-06-22T06:15:04;19.40;99.90
61016;DHT22;46902;52.920;6.536;2023-06-22T06:17:30;19.50;99.90
61016;DHT22;46902;52.920;6.536;2023-06-22T06:19:56;19.60;99.90
61016;DHT22;46902;52.920;6.536;2023-06-22T06:22:22;19.60;99.90
61016;DHT22;46902;52.920;6.536;2023-06-22T06:24:49;19.70;99.90
61016;DHT22;46902;52.920;6.536;2023-06-22T06:27:15;19.80;99.90
61016;DHT22;46902;52.920;6.536;2023-06-22T06:29:43;19.90;99.90
61016;DHT22;46902;52.920;6.536;2023-06-22T06:32:11;20.00;99.90
61016;DHT22;46902;52.920;6.536;2023-06-22T06:34:37;20.10;99.90
61016;DHT22;46902;52.920;6.536;2023-06-22T06:37:03;20.20;99.90
61016;DHT22;46902;52.920;6.536;2023-06-22T06:39:29;20.30;99.90
61016;DHT22;46902;52.920;6.536;2023-06-22T06:41:54;20.40;99.90
61016;DHT22;46902;52.920;6.536;2023-06-22T06:44:20;20.50;99.90
61016;DHT22;46902;52.920;6.536;2023-06-22T06:46:46;20.60;99.90
61016;DHT22;46902;52.920;6.536;2023-06-22T06:49:12;20.60;99.90
61016;DHT22;46902;52.920;6.536;2023-06-22T06:51:38;20.70;99.90
61016;DHT22;46902;52.920;6.536;2023-06-22T06:54:04;20.80;99.90
61016;DHT22;46902;52.920;6.536;2023-06-22T06:56:29;20.80;99.90
61016;DHT22;46902;52.920;6.536;2023-06-22T06:58:55;20.90;99.90
61016;DHT22;46902;52.920;6.536;2023-06-22T07:01:21;20.90;99.90
61016;DHT22;46902;52.920;6.536;2023-06-22T07:03:46;21.00;99.90
61016;DHT22;46902;52.920;6.536;2023-06-22T07:06:13;21.00;99.90
61016;DHT22;46902;52.920;6.536;2023-06-22T07:08:38;21.10;99.90
61016;DHT22;46902;52.920;6.536;2023-06-22T07:11:05;21.30;99.90
61016;DHT22;46902;52.920;6.536;2023-06-22T07:13:31;21.40;99.90
61016;DHT22;46902;52.920;6.536;2023-06-22T07:15:56;21.50;99.90
61016;DHT22;46902;52.920;6.536;2023-06-22T07:18:23;21.50;99.90
61016;DHT22;46902;52.920;6.536;2023-06-22T07:20:49;21.60;99.90
61016;DHT22;46902;52.920;6.536;2023-06-22T07:23:15;21.70;99.90
61016;DHT22;46902;52.920;6.536;2023-06-22T07:25:41;21.70;99.90
61016;DHT22;46902;52.920;6.536;2023-06-22T07:28:07;21.90;99.90
61016;DHT22;46902;52.920;6.536;2023-06-22T07:30:33;21.90;99.90
61016;DHT22;46902;52.920;6.536;2023-06-22T07:32:59;21.90;99.90
61016;DHT22;46902;52.920;6.536;2023-06-22T07:35:32;21.90;99.90
61016;DHT22;46902;52.920;6.536;2023-06-22T07:37:58;22.00;99.90
61016;DHT22;46902;52.920;6.536;2023-06-22T07:40:24;22.10;99.90
61016;DHT22;46902;52.920;6.536;2023-06-22T07:42:50;22.20;99.90
61016;DHT22;46902;52.920;6.536;2023-06-22T07:45:17;22.30;99.70
61016;DHT22;46902;52.920;6.536;2023-06-22T07:47:43;22.40;99.30
61016;DHT22;46902;52.920;6.536;2023-06-22T07:50:09;22.50;98.70
61016;DHT22;46902;52.920;6.536;2023-06-22T07:52:35;22.70;98.50
61016;DHT22;46902;52.920;6.536;2023-06-22T07:55:01;22.70;97.90
61016;DHT22;46902;52.920;6.536;2023-06-22T07:57:28;22.80;97.60
61016;DHT22;46902;52.920;6.536;2023-06-22T08:00:08;22.90;97.90
61016;DHT22;46902;52.920;6.536;2023-06-22T08:02:42;23.00;97.40
61016;DHT22;46902;52.920;6.536;2023-06-22T08:05:09;23.10;97.20
61016;DHT22;46902;52.920;6.536;2023-06-22T08:07:35;23.20;96.80
61016;DHT22;46902;52.920;6.536;2023-06-22T08:10:03;23.30;96.10
61016;DHT22;46902;52.920;6.536;2023-06-22T08:12:29;23.40;95.90
61016;DHT22;46902;52.920;6.536;2023-06-22T08:14:55;23.50;95.40
61016;DHT22;46902;52.920;6.536;2023-06-22T08:17:22;23.60;95.50
61016;DHT22;46902;52.920;6.536;2023-06-22T08:19:48;23.70;95.30
61016;DHT22;46902;52.920;6.536;2023-06-22T08:22:14;23.80;95.30
61016;DHT22;46902;52.920;6.536;2023-06-22T08:24:39;23.90;94.60
61016;DHT22;46902;52.920;6.536;2023-06-22T08:27:07;24.00;94.40
61016;DHT22;46902;52.920;6.536;2023-06-22T08:29:34;24.10;94.40
61016;DHT22;46902;52.920;6.536;2023-06-22T08:31:59;24.30;93.60
61016;DHT22;46902;52.920;6.536;2023-06-22T08:34:25;24.40;93.00
61016;DHT22;46902;52.920;6.536;2023-06-22T08:36:53;24.50;92.40
61016;DHT22;46902;52.920;6.536;2023-06-22T08:39:22;24.60;92.10
61016;DHT22;46902;52.920;6.536;2023-06-22T08:41:48;24.70;91.80
61016;DHT22;46902;52.920;6.536;2023-06-22T08:44:14;24.80;91.40
61016;DHT22;46902;52.920;6.536;2023-06-22T08:46:39;24.90;91.40
61016;DHT22;46902;52.920;6.536;2023-06-22T08:49:06;25.10;91.20
61016;DHT22;46902;52.920;6.536;2023-06-22T08:51:32;25.20;90.90
61016;DHT22;46902;52.920;6.536;2023-06-22T08:53:58;25.40;90.50
61016;DHT22;46902;52.920;6.536;2023-06-22T08:56:26;25.40;90.30
61016;DHT22;46902;52.920;6.536;2023-06-22T08:58:52;25.50;89.70
61016;DHT22;46902;52.920;6.536;2023-06-22T09:01:17;25.60;88.80
61016;DHT22;46902;52.920;6.536;2023-06-22T09:03:43;25.70;88.50
61016;DHT22;46902;52.920;6.536;2023-06-22T09:06:08;25.70;88.50
61016;DHT22;46902;52.920;6.536;2023-06-22T09:08:39;25.80;88.70
61016;DHT22;46902;52.920;6.536;2023-06-22T09:11:04;26.00;86.80
61016;DHT22;46902;52.920;6.536;2023-06-22T09:13:31;26.00;85.00
61016;DHT22;46902;52.920;6.536;2023-06-22T09:15:57;26.10;84.70
61016;DHT22;46902;52.920;6.536;2023-06-22T09:18:22;26.30;84.90
61016;DHT22;46902;52.920;6.536;2023-06-22T09:20:48;26.50;84.40
61016;DHT22;46902;52.920;6.536;2023-06-22T09:23:14;26.60;83.70
61016;DHT22;46902;52.920;6.536;2023-06-22T09:25:40;26.70;82.80
61016;DHT22;46902;52.920;6.536;2023-06-22T09:28:06;26.70;82.40
61016;DHT22;46902;52.920;6.536;2023-06-22T09:30:32;26.80;80.90
61016;DHT22;46902;52.920;6.536;2023-06-22T09:32:57;26.80;80.70
61016;DHT22;46902;52.920;6.536;2023-06-22T09:35:23;26.80;81.20
61016;DHT22;46902;52.920;6.536;2023-06-22T09:37:48;27.00;79.60
61016;DHT22;46902;52.920;6.536;2023-06-22T09:40:14;27.10;79.20
61016;DHT22;46902;52.920;6.536;2023-06-22T09:42:42;27.10;78.30
61016;DHT22;46902;52.920;6.536;2023-06-22T09:45:08;27.30;79.50
61016;DHT22;46902;52.920;6.536;2023-06-22T09:47:33;27.40;78.50
61016;DHT22;46902;52.920;6.536;2023-06-22T09:49:59;27.50;76.60
61016;DHT22;46902;52.920;6.536;2023-06-22T09:52:25;27.60;76.80
61016;DHT22;46902;52.920;6.536;2023-06-22T09:54:51;27.70;75.50
61016;DHT22;46902;52.920;6.536;2023-06-22T09:57:16;27.90;75.20
61016;DHT22;46902;52.920;6.536;2023-06-22T09:59:42;28.00;75.00
61016;DHT22;46902;52.920;6.536;2023-06-22T10:02:08;28.20;73.50
61016;DHT22;46902;52.920;6.536;2023-06-22T10:04:34;28.30;73.10
61016;DHT22;46902;52.920;6.536;2023-06-22T10:07:00;28.50;73.00
61016;DHT22;46902;52.920;6.536;2023-06-22T10:09:26;28.40;72.10
61016;DHT22;46902;52.920;6.536;2023-06-22T10:11:52;28.40;72.10
61016;DHT22;46902;52.920;6.536;2023-06-22T10:14:17;28.50;71.50
61016;DHT22;46902;52.920;6.536;2023-06-22T10:16:43;28.50;70.90
61016;DHT22;46902;52.920;6.536;2023-06-22T10:19:09;28.50;71.30
61016;DHT22;46902;52.920;6.536;2023-06-22T10:21:34;28.60;70.90
61016;DHT22;46902;52.920;6.536;2023-06-22T10:24:00;28.80;70.50
61016;DHT22;46902;52.920;6.536;2023-06-22T10:26:35;28.90;69.90
61016;DHT22;46902;52.920;6.536;2023-06-22T10:29:01;29.00;69.50
61016;DHT22;46902;52.920;6.536;2023-06-22T10:31:27;29.10;69.00
61016;DHT22;46902;52.920;6.536;2023-06-22T10:33:54;29.00;68.60
61016;DHT22;46902;52.920;6.536;2023-06-22T10:36:20;29.00;68.50
61016;DHT22;46902;52.920;6.536;2023-06-22T10:38:46;29.10;68.90
61016;DHT22;46902;52.920;6.536;2023-06-22T10:41:12;29.20;68.70
61016;DHT22;46902;52.920;6.536;2023-06-22T10:43:38;29.20;67.30
61016;DHT22;46902;52.920;6.536;2023-06-22T10:46:04;29.10;66.60
61016;DHT22;46902;52.920;6.536;2023-06-22T10:48:29;29.10;66.70
61016;DHT22;46902;52.920;6.536;2023-06-22T10:50:55;29.00;66.30
61016;DHT22;46902;52.920;6.536;2023-06-22T10:53:21;29.10;67.10
61016;DHT22;46902;52.920;6.536;2023-06-22T10:55:47;29.20;67.00
61016;DHT22;46902;52.920;6.536;2023-06-22T10:58:13;29.30;67.10
61016;DHT22;46902;52.920;6.536;2023-06-22T11:00:38;29.50;66.90
61016;DHT22;46902;52.920;6.536;2023-06-22T11:03:04;29.50;65.40
61016;DHT22;46902;52.920;6.536;2023-06-22T11:05:30;29.50;65.60
61016;DHT22;46902;52.920;6.536;2023-06-22T11:07:55;29.40;66.30
61016;DHT22;46902;52.920;6.536;2023-06-22T11:10:21;29.30;65.50
61016;DHT22;46902;52.920;6.536;2023-06-22T11:12:46;29.20;64.40
61016;DHT22;46902;52.920;6.536;2023-06-22T11:15:12;29.10;64.60
61016;DHT22;46902;52.920;6.536;2023-06-22T11:17:38;29.00;64.70
61016;DHT22;46902;52.920;6.536;2023-06-22T11:20:04;28.80;65.20
61016;DHT22;46902;52.920;6.536;2023-06-22T11:22:39;28.60;65.50
61016;DHT22;46902;52.920;6.536;2023-06-22T11:25:05;28.50;66.30
61016;DHT22;46902;52.920;6.536;2023-06-22T11:27:31;28.40;65.80
61016;DHT22;46902;52.920;6.536;2023-06-22T11:29:57;28.40;66.00
61016;DHT22;46902;52.920;6.536;2023-06-22T11:32:23;28.30;65.60
61016;DHT22;46902;52.920;6.536;2023-06-22T11:34:49;28.30;65.90
61016;DHT22;46902;52.920;6.536;2023-06-22T11:37:14;28.20;66.40
61016;DHT22;46902;52.920;6.536;2023-06-22T11:39:41;28.10;65.80
61016;DHT22;46902;52.920;6.536;2023-06-22T11:42:07;28.10;66.00
61016;DHT22;46902;52.920;6.536;2023-06-22T11:44:33;28.00;66.00
61016;DHT22;46902;52.920;6.536;2023-06-22T11:46:58;27.90;64.90
61016;DHT22;46902;52.920;6.536;2023-06-22T11:49:26;27.90;65.00
61016;DHT22;46902;52.920;6.536;2023-06-22T11:51:52;27.90;65.50
61016;DHT22;46902;52.920;6.536;2023-06-22T11:54:17;27.90;65.80
61016;DHT22;46902;52.920;6.536;2023-06-22T11:56:43;27.90;65.80
61016;DHT22;46902;52.920;6.536;2023-06-22T11:59:09;27.90;65.30
61016;DHT22;46902;52.920;6.536;2023-06-22T12:01:34;27.90;65.20
61016;DHT22;46902;52.920;6.536;2023-06-22T12:04:00;27.90;65.70
61016;DHT22;46902;52.920;6.536;2023-06-22T12:06:25;27.90;65.80
61016;DHT22;46902;52.920;6.536;2023-06-22T12:08:51;27.90;64.40
61016;DHT22;46902;52.920;6.536;2023-06-22T12:11:16;27.90;64.00
61016;DHT22;46902;52.920;6.536;2023-06-22T12:13:42;27.90;64.60
61016;DHT22;46902;52.920;6.536;2023-06-22T12:16:08;27.90;64.40
61016;DHT22;46902;52.920;6.536;2023-06-22T12:18:33;28.00;64.90
61016;DHT22;46902;52.920;6.536;2023-06-22T12:20:59;28.00;64.30
61016;DHT22;46902;52.920;6.536;2023-06-22T12:23:24;28.10;65.20
61016;DHT22;46902;52.920;6.536;2023-06-22T12:25:50;28.10;64.20
61016;DHT22;46902;52.920;6.536;2023-06-22T12:28:16;28.20;64.60
61016;DHT22;46902;52.920;6.536;2023-06-22T12:30:41;28.20;65.30
61016;DHT22;46902;52.920;6.536;2023-06-22T12:33:07;28.30;65.30
61016;DHT22;46902;52.920;6.536;2023-06-22T12:35:33;28.30;64.90
61016;DHT22;46902;52.920;6.536;2023-06-22T12:37:58;28.30;64.40
61016;DHT22;46902;52.920;6.536;2023-06-22T12:40:24;28.30;64.80
61016;DHT22;46902;52.920;6.536;2023-06-22T12:42:50;28.20;65.00
61016;DHT22;46902;52.920;6.536;2023-06-22T12:45:15;28.10;65.30
61016;DHT22;46902;52.920;6.536;2023-06-22T12:47:41;27.90;65.20
61016;DHT22;46902;52.920;6.536;2023-06-22T12:50:07;27.90;65.90
61016;DHT22;46902;52.920;6.536;2023-06-22T12:52:33;27.80;66.10
61016;DHT22;46902;52.920;6.536;2023-06-22T12:54:58;27.70;66.60
61016;DHT22;46902;52.920;6.536;2023-06-22T12:57:24;27.60;66.50
61016;DHT22;46902;52.920;6.536;2023-06-22T12:59:50;27.60;67.10
61016;DHT22;46902;52.920;6.536;2023-06-22T13:02:16;27.50;66.90
61016;DHT22;46902;52.920;6.536;2023-06-22T13:04:42;27.40;67.00
61016;DHT22;46902;52.920;6.536;2023-06-22T13:07:08;27.30;67.50
61016;DHT22;46902;52.920;6.536;2023-06-22T13:09:36;27.30;67.50
61016;DHT22;46902;52.920;6.536;2023-06-22T13:12:02;27.20;67.90
61016;DHT22;46902;52.920;6.536;2023-06-22T13:14:27;27.10;68.40
61016;DHT22;46902;52.920;6.536;2023-06-22T13:16:53;27.00;68.80
61016;DHT22;46902;52.920;6.536;2023-06-22T13:19:19;27.00;69.20
61016;DHT22;46902;52.920;6.536;2023-06-22T13:21:44;27.00;69.10
61016;DHT22;46902;52.920;6.536;2023-06-22T13:24:10;27.00;69.10
61016;DHT22;46902;52.920;6.536;2023-06-22T13:26:35;26.90;69.10
61016;DHT22;46902;52.920;6.536;2023-06-22T13:29:01;26.90;69.40
61016;DHT22;46902;52.920;6.536;2023-06-22T13:31:26;26.80;70.00
61016;DHT22;46902;52.920;6.536;2023-06-22T13:33:52;26.80;69.90
61016;DHT22;46902;52.920;6.536;2023-06-22T13:36:18;26.80;70.10
61016;DHT22;46902;52.920;6.536;2023-06-22T13:38:44;26.80;70.90
61016;DHT22;46902;52.920;6.536;2023-06-22T13:41:10;26.60;70.10
61016;DHT22;46902;52.920;6.536;2023-06-22T13:43:35;26.60;70.50
61016;DHT22;46902;52.920;6.536;2023-06-22T13:46:01;26.50;70.90
61016;DHT22;46902;52.920;6.536;2023-06-22T13:48:26;26.40;70.80
61016;DHT22;46902;52.920;6.536;2023-06-22T13:50:54;26.40;71.50
61016;DHT22;46902;52.920;6.536;2023-06-22T13:53:19;26.30;71.80
61016;DHT22;46902;52.920;6.536;2023-06-22T13:55:45;26.20;71.70
61016;DHT22;46902;52.920;6.536;2023-06-22T13:58:12;26.20;71.80
61016;DHT22;46902;52.920;6.536;2023-06-22T14:00:37;26.10;72.30
61016;DHT22;46902;52.920;6.536;2023-06-22T14:03:03;26.10;72.20
61016;DHT22;46902;52.920;6.536;2023-06-22T14:05:29;26.10;72.30
61016;DHT22;46902;52.920;6.536;2023-06-22T14:07:54;26.00;72.40
61016;DHT22;46902;52.920;6.536;2023-06-22T14:10:20;26.00;72.80
61016;DHT22;46902;52.920;6.536;2023-06-22T14:12:45;26.00;73.60
61016;DHT22;46902;52.920;6.536;2023-06-22T14:15:11;26.00;74.60
61016;DHT22;46902;52.920;6.536;2023-06-22T14:17:37;25.90;76.10
61016;DHT22;46902;52.920;6.536;2023-06-22T14:20:02;26.00;77.70
61016;DHT22;46902;52.920;6.536;2023-06-22T14:22:29;25.80;78.40
61016;DHT22;46902;52.920;6.536;2023-06-22T14:24:55;25.80;79.30
61016;DHT22;46902;52.920;6.536;2023-06-22T14:27:23;25.60;79.90
61016;DHT22;46902;52.920;6.536;2023-06-22T14:29:48;25.50;82.60
61016;DHT22;46902;52.920;6.536;2023-06-22T14:32:14;25.40;83.90
61016;DHT22;46902;52.920;6.536;2023-06-22T14:34:39;25.30;84.20
61016;DHT22;46902;52.920;6.536;2023-06-22T14:37:06;25.20;87.10
61016;DHT22;46902;52.920;6.536;2023-06-22T14:39:33;25.10;87.10
61016;DHT22;46902;52.920;6.536;2023-06-22T14:41:58;24.90;87.60
61016;DHT22;46902;52.920;6.536;2023-06-22T14:44:26;24.80;87.70
61016;DHT22;46902;52.920;6.536;2023-06-22T14:46:51;24.80;89.10
61016;DHT22;46902;52.920;6.536;2023-06-22T14:49:17;24.70;88.20
61016;DHT22;46902;52.920;6.536;2023-06-22T14:51:43;24.70;89.30
61016;DHT22;46902;52.920;6.536;2023-06-22T14:54:08;24.60;90.50
61016;DHT22;46902;52.920;6.536;2023-06-22T14:56:34;24.50;90.60
61016;DHT22;46902;52.920;6.536;2023-06-22T14:58:59;24.40;90.20
61016;DHT22;46902;52.920;6.536;2023-06-22T15:01:25;24.30;90.70
61016;DHT22;46902;52.920;6.536;2023-06-22T15:03:51;24.30;92.10
61016;DHT22;46902;52.920;6.536;2023-06-22T15:06:16;24.20;92.50
61016;DHT22;46902;52.920;6.536;2023-06-22T15:08:42;24.10;92.70
61016;DHT22;46902;52.920;6.536;2023-06-22T15:11:08;24.00;93.20
61016;DHT22;46902;52.920;6.536;2023-06-22T15:13:34;23.90;93.30
61016;DHT22;46902;52.920;6.536;2023-06-22T15:16:01;23.80;93.50
61016;DHT22;46902;52.920;6.536;2023-06-22T15:18:27;23.80;93.70
61016;DHT22;46902;52.920;6.536;2023-06-22T15:20:53;23.70;94.20
61016;DHT22;46902;52.920;6.536;2023-06-22T15:23:18;23.60;94.50
61016;DHT22;46902;52.920;6.536;2023-06-22T15:25:44;23.50;94.90
61016;DHT22;46902;52.920;6.536;2023-06-22T15:28:11;23.30;95.30
61016;DHT22;46902;52.920;6.536;2023-06-22T15:30:37;23.30;94.80